sensor_id;sensor_type;location;lat;lon;timestamp;P1;durP1;ratioP1;P2;durP2;ratioP2
14369;SDS011;7268;50.792;0.252;2024-01-30T00:01:03;4.45;;;3.40;;
14369;SDS011;7268;50.792;0.252;2024-01-30T00:03:30;5.72;;;0.88;;
14369;SDS011;7268;50.792;0.252;2024-01-30T00:05:57;6.40;;;1.70;;
14369;SDS011;7268;50.792;0.252;2024-01-30T00:10:52;9.73;;;1.83;;
14369;SDS011;7268;50.792;0.252;2024-01-30T00:13:19;7.60;;;2.15;;
14369;SDS011;7268;50.792;0.252;2024-01-30T00:15:46;4.13;;;0.90;;
14369;SDS011;7268;50.792;0.252;2024-01-30T00:18:13;7.82;;;2.13;;
14369;SDS011;7268;50.792;0.252;2024-01-30T00:20:40;4.07;;;1.70;;
14369;SDS011;7268;50.792;0.252;2024-01-30T00:23:12;5.47;;;2.13;;
14369;SDS011;7268;50.792;0.252;2024-01-30T00:25:39;6.28;;;2.05;;
14369;SDS011;7268;50.792;0.252;2024-01-30T00:28:06;6.53;;;1.90;;
14369;SDS011;7268;50.792;0.252;2024-01-30T00:30:33;4.32;;;2.78;;
14369;SDS011;7268;50.792;0.252;2024-01-30T00:33:00;4.65;;;2.08;;
14369;SDS011;7268;50.792;0.252;2024-01-30T00:35:26;4.15;;;1.85;;
14369;SDS011;7268;50.792;0.252;2024-01-30T00:37:55;4.40;;;1.98;;
14369;SDS011;7268;50.792;0.252;2024-01-30T00:40:25;8.07;;;2.67;;
14369;SDS011;7268;50.792;0.252;2024-01-30T00:42:52;10.93;;;4.20;;
14369;SDS011;7268;50.792;0.252;2024-01-30T00:45:19;10.23;;;2.78;;
14369;SDS011;7268;50.792;0.252;2024-01-30T00:47:46;8.43;;;2.35;;
14369;SDS011;7268;50.792;0.252;2024-01-30T00:50:13;6.90;;;3.15;;
14369;SDS011;7268;50.792;0.252;2024-01-30T00:52:40;5.40;;;2.17;;
14369;SDS011;7268;50.792;0.252;2024-01-30T00:55:08;5.88;;;2.08;;
14369;SDS011;7268;50.792;0.252;2024-01-30T00:57:36;12.20;;;2.30;;
14369;SDS011;7268;50.792;0.252;2024-01-30T01:00:03;5.18;;;1.33;;
14369;SDS011;7268;50.792;0.252;2024-01-30T01:02:34;7.60;;;2.47;;
14369;SDS011;7268;50.792;0.252;2024-01-30T01:05:02;3.80;;;1.63;;
14369;SDS011;7268;50.792;0.252;2024-01-30T01:09:56;4.35;;;0.63;;
14369;SDS011;7268;50.792;0.252;2024-01-30T01:12:23;3.40;;;1.27;;
14369;SDS011;7268;50.792;0.252;2024-01-30T01:14:50;11.55;;;3.05;;
14369;SDS011;7268;50.792;0.252;2024-01-30T01:17:17;4.80;;;1.60;;
14369;SDS011;7268;50.792;0.252;2024-01-30T01:19:45;6.10;;;1.20;;
14369;SDS011;7268;50.792;0.252;2024-01-30T01:22:12;8.02;;;1.60;;
14369;SDS011;7268;50.792;0.252;2024-01-30T01:24:39;4.47;;;1.20;;
14369;SDS011;7268;50.792;0.252;2024-01-30T01:27:05;10.07;;;1.30;;
14369;SDS011;7268;50.792;0.252;2024-01-30T01:29:35;11.43;;;2.25;;
14369;SDS011;7268;50.792;0.252;2024-01-30T01:32:01;5.55;;;2.78;;
14369;SDS011;7268;50.792;0.252;2024-01-30T01:34:28;7.72;;;1.58;;
14369;SDS011;7268;50.792;0.252;2024-01-30T01:36:56;6.65;;;2.28;;
14369;SDS011;7268;50.792;0.252;2024-01-30T01:39:23;7.05;;;1.85;;
14369;SDS011;7268;50.792;0.252;2024-01-30T01:41:50;3.88;;;0.98;;
14369;SDS011;7268;50.792;0.252;2024-01-30T01:44:18;5.65;;;1.75;;
14369;SDS011;7268;50.792;0.252;2024-01-30T01:46:45;9.38;;;1.58;;
14369;SDS011;7268;50.792;0.252;2024-01-30T01:49:13;11.25;;;1.27;;
14369;SDS011;7268;50.792;0.252;2024-01-30T01:51:41;3.35;;;0.47;;
14369;SDS011;7268;50.792;0.252;2024-01-30T01:54:11;5.40;;;0.85;;
14369;SDS011;7268;50.792;0.252;2024-01-30T01:56:38;1.80;;;0.77;;
14369;SDS011;7268;50.792;0.252;2024-01-30T01:59:06;5.10;;;1.10;;
14369;SDS011;7268;50.792;0.252;2024-01-30T02:01:37;10.90;;;1.33;;
14369;SDS011;7268;50.792;0.252;2024-01-30T02:04:07;0.82;;;0.25;;
14369;SDS011;7268;50.792;0.252;2024-01-30T02:06:34;4.72;;;0.30;;
14369;SDS011;7268;50.792;0.252;2024-01-30T02:09:02;3.67;;;0.98;;
14369;SDS011;7268;50.792;0.252;2024-01-30T02:11:31;3.83;;;0.28;;
14369;SDS011;7268;50.792;0.252;2024-01-30T02:14:02;5.50;;;1.17;;
14369;SDS011;7268;50.792;0.252;2024-01-30T02:16:30;1.38;;;0.75;;
14369;SDS011;7268;50.792;0.252;2024-01-30T02:19:00;7.43;;;0.82;;
14369;SDS011;7268;50.792;0.252;2024-01-30T02:21:27;5.72;;;1.40;;
14369;SDS011;7268;50.792;0.252;2024-01-30T02:23:54;5.03;;;0.30;;
14369;SDS011;7268;50.792;0.252;2024-01-30T02:26:22;1.65;;;0.08;;
14369;SDS011;7268;50.792;0.252;2024-01-30T02:28:49;1.65;;;0.20;;
14369;SDS011;7268;50.792;0.252;2024-01-30T02:31:16;4.63;;;0.10;;
14369;SDS011;7268;50.792;0.252;2024-01-30T02:33:43;2.30;;;0.38;;
14369;SDS011;7268;50.792;0.252;2024-01-30T02:36:10;5.15;;;0.52;;
14369;SDS011;7268;50.792;0.252;2024-01-30T02:38:40;1.13;;;0.17;;
14369;SDS011;7268;50.792;0.252;2024-01-30T02:41:07;0.85;;;0.50;;
14369;SDS011;7268;50.792;0.252;2024-01-30T02:43:38;1.50;;;0.30;;
14369;SDS011;7268;50.792;0.252;2024-01-30T02:46:05;1.70;;;0.28;;
14369;SDS011;7268;50.792;0.252;2024-01-30T02:48:32;2.88;;;0.80;;
14369;SDS011;7268;50.792;0.252;2024-01-30T02:50:59;4.47;;;0.85;;
14369;SDS011;7268;50.792;0.252;2024-01-30T02:53:26;3.72;;;0.45;;
14369;SDS011;7268;50.792;0.252;2024-01-30T02:55:53;0.80;;;0.08;;
14369;SDS011;7268;50.792;0.252;2024-01-30T02:58:20;11.18;;;0.75;;
14369;SDS011;7268;50.792;0.252;2024-01-30T03:00:47;2.30;;;0.50;;
14369;SDS011;7268;50.792;0.252;2024-01-30T03:03:14;5.50;;;0.20;;
14369;SDS011;7268;50.792;0.252;2024-01-30T03:05:41;1.55;;;0.55;;
14369;SDS011;7268;50.792;0.252;2024-01-30T03:08:11;2.05;;;0.82;;
14369;SDS011;7268;50.792;0.252;2024-01-30T03:10:38;2.97;;;0.00;;
14369;SDS011;7268;50.792;0.252;2024-01-30T03:13:05;3.63;;;1.08;;
14369;SDS011;7268;50.792;0.252;2024-01-30T03:15:32;3.05;;;0.47;;
14369;SDS011;7268;50.792;0.252;2024-01-30T03:17:59;6.22;;;0.13;;
14369;SDS011;7268;50.792;0.252;2024-01-30T03:20:26;2.50;;;0.00;;
14369;SDS011;7268;50.792;0.252;2024-01-30T03:22:53;0.85;;;0.32;;
14369;SDS011;7268;50.792;0.252;2024-01-30T03:25:21;1.50;;;0.05;;
14369;SDS011;7268;50.792;0.252;2024-01-30T03:27:48;4.07;;;0.40;;
14369;SDS011;7268;50.792;0.252;2024-01-30T03:30:17;1.25;;;0.10;;
14369;SDS011;7268;50.792;0.252;2024-01-30T03:32:44;0.85;;;0.85;;
14369;SDS011;7268;50.792;0.252;2024-01-30T03:35:11;3.63;;;0.80;;
14369;SDS011;7268;50.792;0.252;2024-01-30T03:37:38;0.43;;;0.17;;
14369;SDS011;7268;50.792;0.252;2024-01-30T03:40:05;0.22;;;0.03;;
14369;SDS011;7268;50.792;0.252;2024-01-30T03:42:33;1.40;;;0.10;;
14369;SDS011;7268;50.792;0.252;2024-01-30T03:45:00;1.50;;;1.40;;
14369;SDS011;7268;50.792;0.252;2024-01-30T03:47:27;1.05;;;0.10;;
14369;SDS011;7268;50.792;0.252;2024-01-30T03:49:54;1.67;;;0.30;;
14369;SDS011;7268;50.792;0.252;2024-01-30T03:52:21;0.57;;;0.10;;
14369;SDS011;7268;50.792;0.252;2024-01-30T03:54:48;1.95;;;0.70;;
14369;SDS011;7268;50.792;0.252;2024-01-30T03:57:16;2.40;;;0.20;;
14369;SDS011;7268;50.792;0.252;2024-01-30T03:59:43;6.85;;;0.00;;
14369;SDS011;7268;50.792;0.252;2024-01-30T04:02:10;4.88;;;1.02;;
14369;SDS011;7268;50.792;0.252;2024-01-30T04:04:41;3.38;;;0.52;;
14369;SDS011;7268;50.792;0.252;2024-01-30T04:07:08;3.42;;;0.85;;
14369;SDS011;7268;50.792;0.252;2024-01-30T04:09:35;0.35;;;0.22;;
14369;SDS011;7268;50.792;0.252;2024-01-30T04:12:02;5.78;;;1.23;;
14369;SDS011;7268;50.792;0.252;2024-01-30T04:14:30;2.83;;;0.55;;
14369;SDS011;7268;50.792;0.252;2024-01-30T04:16:57;0.95;;;0.32;;
14369;SDS011;7268;50.792;0.252;2024-01-30T04:19:24;1.70;;;0.82;;
14369;SDS011;7268;50.792;0.252;2024-01-30T04:21:51;1.23;;;0.15;;
14369;SDS011;7268;50.792;0.252;2024-01-30T04:24:20;0.20;;;0.10;;
14369;SDS011;7268;50.792;0.252;2024-01-30T04:26:47;1.75;;;0.50;;
14369;SDS011;7268;50.792;0.252;2024-01-30T04:29:14;3.72;;;0.40;;
14369;SDS011;7268;50.792;0.252;2024-01-30T04:31:41;0.30;;;0.10;;
14369;SDS011;7268;50.792;0.252;2024-01-30T04:34:08;0.55;;;0.20;;
14369;SDS011;7268;50.792;0.252;2024-01-30T04:36:35;1.98;;;0.77;;
14369;SDS011;7268;50.792;0.252;2024-01-30T04:39:02;0.30;;;0.10;;
14369;SDS011;7268;50.792;0.252;2024-01-30T04:41:30;0.85;;;0.85;;
14369;SDS011;7268;50.792;0.252;2024-01-30T04:43:58;5.03;;;0.47;;
14369;SDS011;7268;50.792;0.252;2024-01-30T04:46:25;1.10;;;0.13;;
14369;SDS011;7268;50.792;0.252;2024-01-30T04:48:54;2.85;;;0.17;;
14369;SDS011;7268;50.792;0.252;2024-01-30T04:51:22;1.42;;;0.28;;
14369;SDS011;7268;50.792;0.252;2024-01-30T04:53:49;2.30;;;0.10;;
14369;SDS011;7268;50.792;0.252;2024-01-30T04:56:15;2.35;;;0.10;;
14369;SDS011;7268;50.792;0.252;2024-01-30T04:58:43;2.53;;;0.22;;
14369;SDS011;7268;50.792;0.252;2024-01-30T05:01:14;2.97;;;0.73;;
14369;SDS011;7268;50.792;0.252;2024-01-30T05:03:42;0.30;;;0.28;;
14369;SDS011;7268;50.792;0.252;2024-01-30T05:06:09;1.42;;;0.47;;
14369;SDS011;7268;50.792;0.252;2024-01-30T05:08:36;2.05;;;1.23;;
14369;SDS011;7268;50.792;0.252;2024-01-30T05:11:05;2.78;;;0.57;;
14369;SDS011;7268;50.792;0.252;2024-01-30T05:13:32;0.60;;;0.57;;
14369;SDS011;7268;50.792;0.252;2024-01-30T05:15:59;3.90;;;0.68;;
14369;SDS011;7268;50.792;0.252;2024-01-30T05:18:28;1.42;;;0.43;;
14369;SDS011;7268;50.792;0.252;2024-01-30T05:20:55;1.15;;;0.17;;
14369;SDS011;7268;50.792;0.252;2024-01-30T05:23:22;2.35;;;0.65;;
14369;SDS011;7268;50.792;0.252;2024-01-30T05:25:49;1.75;;;0.28;;
14369;SDS011;7268;50.792;0.252;2024-01-30T05:28:16;2.50;;;0.20;;
14369;SDS011;7268;50.792;0.252;2024-01-30T05:30:43;3.28;;;0.32;;
14369;SDS011;7268;50.792;0.252;2024-01-30T05:33:10;2.38;;;0.08;;
14369;SDS011;7268;50.792;0.252;2024-01-30T05:35:38;2.15;;;0.08;;
14369;SDS011;7268;50.792;0.252;2024-01-30T05:38:05;2.35;;;0.45;;
14369;SDS011;7268;50.792;0.252;2024-01-30T05:40:32;1.52;;;0.47;;
14369;SDS011;7268;50.792;0.252;2024-01-30T05:42:59;3.03;;;0.65;;
14369;SDS011;7268;50.792;0.252;2024-01-30T05:45:29;1.15;;;0.65;;
14369;SDS011;7268;50.792;0.252;2024-01-30T05:47:56;1.35;;;0.00;;
14369;SDS011;7268;50.792;0.252;2024-01-30T05:50:23;1.95;;;0.38;;
14369;SDS011;7268;50.792;0.252;2024-01-30T05:52:51;0.90;;;0.15;;
14369;SDS011;7268;50.792;0.252;2024-01-30T05:55:18;1.98;;;1.05;;
14369;SDS011;7268;50.792;0.252;2024-01-30T05:57:45;1.48;;;0.20;;
14369;SDS011;7268;50.792;0.252;2024-01-30T06:00:13;3.38;;;0.10;;
14369;SDS011;7268;50.792;0.252;2024-01-30T06:02:40;0.93;;;0.10;;
14369;SDS011;7268;50.792;0.252;2024-01-30T06:05:07;0.45;;;0.00;;
14369;SDS011;7268;50.792;0.252;2024-01-30T06:07:34;0.40;;;0.40;;
14369;SDS011;7268;50.792;0.252;2024-01-30T06:12:30;0.65;;;0.65;;
14369;SDS011;7268;50.792;0.252;2024-01-30T06:14:57;0.85;;;0.80;;
14369;SDS011;7268;50.792;0.252;2024-01-30T06:17:24;2.42;;;0.82;;
14369;SDS011;7268;50.792;0.252;2024-01-30T06:19:51;0.30;;;0.17;;
14369;SDS011;7268;50.792;0.252;2024-01-30T06:22:18;0.20;;;0.00;;
14369;SDS011;7268;50.792;0.252;2024-01-30T06:24:45;1.98;;;0.10;;
14369;SDS011;7268;50.792;0.252;2024-01-30T06:27:14;2.63;;;0.65;;
14369;SDS011;7268;50.792;0.252;2024-01-30T06:29:45;1.45;;;0.52;;
14369;SDS011;7268;50.792;0.252;2024-01-30T06:32:12;1.50;;;0.32;;
14369;SDS011;7268;50.792;0.252;2024-01-30T06:34:40;0.40;;;0.28;;
14369;SDS011;7268;50.792;0.252;2024-01-30T06:37:07;0.40;;;0.40;;
14369;SDS011;7268;50.792;0.252;2024-01-30T06:39:34;0.38;;;0.28;;
14369;SDS011;7268;50.792;0.252;2024-01-30T06:42:01;0.80;;;0.30;;
14369;SDS011;7268;50.792;0.252;2024-01-30T06:44:28;2.50;;;0.20;;
14369;SDS011;7268;50.792;0.252;2024-01-30T06:46:58;1.65;;;0.47;;
14369;SDS011;7268;50.792;0.252;2024-01-30T06:49:25;0.30;;;0.00;;
14369;SDS011;7268;50.792;0.252;2024-01-30T06:51:52;3.65;;;1.27;;
14369;SDS011;7268;50.792;0.252;2024-01-30T06:54:19;0.28;;;0.10;;
14369;SDS011;7268;50.792;0.252;2024-01-30T06:56:46;2.10;;;0.17;;
14369;SDS011;7268;50.792;0.252;2024-01-30T06:59:13;0.40;;;0.22;;
14369;SDS011;7268;50.792;0.252;2024-01-30T07:01:40;0.30;;;0.20;;
14369;SDS011;7268;50.792;0.252;2024-01-30T07:04:07;2.30;;;0.28;;
14369;SDS011;7268;50.792;0.252;2024-01-30T07:06:34;2.40;;;0.20;;
14369;SDS011;7268;50.792;0.252;2024-01-30T07:09:01;0.98;;;0.00;;
14369;SDS011;7268;50.792;0.252;2024-01-30T07:11:29;0.35;;;0.03;;
14369;SDS011;7268;50.792;0.252;2024-01-30T07:13:57;0.98;;;0.20;;
14369;SDS011;7268;50.792;0.252;2024-01-30T07:16:23;0.30;;;0.10;;
14369;SDS011;7268;50.792;0.252;2024-01-30T07:18:51;0.20;;;0.10;;
14369;SDS011;7268;50.792;0.252;2024-01-30T07:21:18;0.77;;;0.57;;
14369;SDS011;7268;50.792;0.252;2024-01-30T07:23:50;0.47;;;0.43;;
14369;SDS011;7268;50.792;0.252;2024-01-30T07:26:17;0.55;;;0.50;;
14369;SDS011;7268;50.792;0.252;2024-01-30T07:28:44;0.65;;;0.17;;
14369;SDS011;7268;50.792;0.252;2024-01-30T07:31:11;0.38;;;0.00;;
14369;SDS011;7268;50.792;0.252;2024-01-30T07:33:38;1.20;;;0.52;;
14369;SDS011;7268;50.792;0.252;2024-01-30T07:36:05;1.58;;;0.30;;
14369;SDS011;7268;50.792;0.252;2024-01-30T07:38:32;1.05;;;0.65;;
14369;SDS011;7268;50.792;0.252;2024-01-30T07:40:59;0.68;;;0.30;;
14369;SDS011;7268;50.792;0.252;2024-01-30T07:43:26;0.57;;;0.00;;
14369;SDS011;7268;50.792;0.252;2024-01-30T07:45:53;1.08;;;0.70;;
14369;SDS011;7268;50.792;0.252;2024-01-30T07:48:20;0.65;;;0.65;;
14369;SDS011;7268;50.792;0.252;2024-01-30T07:50:47;0.52;;;0.32;;
14369;SDS011;7268;50.792;0.252;2024-01-30T07:53:14;0.20;;;0.00;;
14369;SDS011;7268;50.792;0.252;2024-01-30T07:55:41;0.80;;;0.17;;
14369;SDS011;7268;50.792;0.252;2024-01-30T07:58:10;0.85;;;0.85;;
14369;SDS011;7268;50.792;0.252;2024-01-30T08:00:37;2.75;;;0.68;;
14369;SDS011;7268;50.792;0.252;2024-01-30T08:03:04;1.20;;;0.10;;
14369;SDS011;7268;50.792;0.252;2024-01-30T08:05:31;0.30;;;0.10;;
14369;SDS011;7268;50.792;0.252;2024-01-30T08:07:58;0.30;;;0.00;;
14369;SDS011;7268;50.792;0.252;2024-01-30T08:10:25;1.58;;;0.00;;
14369;SDS011;7268;50.792;0.252;2024-01-30T08:12:51;1.05;;;0.40;;
14369;SDS011;7268;50.792;0.252;2024-01-30T08:15:18;0.88;;;0.68;;
14369;SDS011;7268;50.792;0.252;2024-01-30T08:17:45;0.40;;;0.40;;
14369;SDS011;7268;50.792;0.252;2024-01-30T08:20:12;3.20;;;0.80;;
14369;SDS011;7268;50.792;0.252;2024-01-30T08:22:40;0.40;;;0.28;;
14369;SDS011;7268;50.792;0.252;2024-01-30T08:25:07;0.50;;;0.50;;
14369;SDS011;7268;50.792;0.252;2024-01-30T08:27:36;0.30;;;0.00;;
14369;SDS011;7268;50.792;0.252;2024-01-30T08:30:05;2.33;;;0.45;;
14369;SDS011;7268;50.792;0.252;2024-01-30T08:32:33;3.55;;;0.25;;
14369;SDS011;7268;50.792;0.252;2024-01-30T08:35:00;0.20;;;0.00;;
14369;SDS011;7268;50.792;0.252;2024-01-30T08:37:30;1.15;;;1.05;;
14369;SDS011;7268;50.792;0.252;2024-01-30T08:39:57;2.90;;;1.13;;
14369;SDS011;7268;50.792;0.252;2024-01-30T08:42:24;4.57;;;0.20;;
14369;SDS011;7268;50.792;0.252;2024-01-30T08:44:51;0.55;;;0.38;;
14369;SDS011;7268;50.792;0.252;2024-01-30T08:47:19;0.50;;;0.47;;
14369;SDS011;7268;50.792;0.252;2024-01-30T08:49:46;3.15;;;0.57;;
14369;SDS011;7268;50.792;0.252;2024-01-30T08:52:13;0.57;;;0.30;;
14369;SDS011;7268;50.792;0.252;2024-01-30T08:54:40;0.60;;;0.55;;
14369;SDS011;7268;50.792;0.252;2024-01-30T08:57:07;2.83;;;0.28;;
14369;SDS011;7268;50.792;0.252;2024-01-30T08:59:34;0.68;;;0.68;;
14369;SDS011;7268;50.792;0.252;2024-01-30T09:02:01;0.35;;;0.13;;
14369;SDS011;7268;50.792;0.252;2024-01-30T09:04:38;0.55;;;0.15;;
14369;SDS011;7268;50.792;0.252;2024-01-30T09:07:06;0.90;;;0.32;;
14369;SDS011;7268;50.792;0.252;2024-01-30T09:09:39;0.32;;;0.13;;
14369;SDS011;7268;50.792;0.252;2024-01-30T09:12:09;1.98;;;0.08;;
14369;SDS011;7268;50.792;0.252;2024-01-30T09:14:39;1.90;;;0.55;;
14369;SDS011;7268;50.792;0.252;2024-01-30T09:17:07;2.85;;;0.17;;
14369;SDS011;7268;50.792;0.252;2024-01-30T09:19:34;1.83;;;0.38;;
14369;SDS011;7268;50.792;0.252;2024-01-30T09:22:02;1.13;;;0.13;;
14369;SDS011;7268;50.792;0.252;2024-01-30T09:24:29;3.67;;;0.40;;
14369;SDS011;7268;50.792;0.252;2024-01-30T09:26:56;0.28;;;0.03;;
14369;SDS011;7268;50.792;0.252;2024-01-30T09:29:23;1.00;;;0.57;;
14369;SDS011;7268;50.792;0.252;2024-01-30T09:31:50;0.43;;;0.17;;
14369;SDS011;7268;50.792;0.252;2024-01-30T09:34:17;0.55;;;0.35;;
14369;SDS011;7268;50.792;0.252;2024-01-30T09:36:44;2.40;;;0.82;;
14369;SDS011;7268;50.792;0.252;2024-01-30T09:39:11;7.22;;;0.77;;
14369;SDS011;7268;50.792;0.252;2024-01-30T09:41:44;1.10;;;0.30;;
14369;SDS011;7268;50.792;0.252;2024-01-30T09:44:15;0.43;;;0.30;;
14369;SDS011;7268;50.792;0.252;2024-01-30T09:46:44;1.60;;;0.55;;
14369;SDS011;7268;50.792;0.252;2024-01-30T09:49:16;0.40;;;0.20;;
14369;SDS011;7268;50.792;0.252;2024-01-30T09:51:46;2.85;;;0.25;;
14369;SDS011;7268;50.792;0.252;2024-01-30T09:54:15;2.10;;;0.47;;
14369;SDS011;7268;50.792;0.252;2024-01-30T09:56:44;1.00;;;1.00;;
14369;SDS011;7268;50.792;0.252;2024-01-30T09:59:11;0.57;;;0.43;;
14369;SDS011;7268;50.792;0.252;2024-01-30T10:01:37;0.63;;;0.47;;
14369;SDS011;7268;50.792;0.252;2024-01-30T10:04:07;0.47;;;0.00;;
14369;SDS011;7268;50.792;0.252;2024-01-30T10:06:34;2.17;;;1.27;;
14369;SDS011;7268;50.792;0.252;2024-01-30T10:09:01;1.17;;;0.35;;
14369;SDS011;7268;50.792;0.252;2024-01-30T10:11:28;0.82;;;0.52;;
14369;SDS011;7268;50.792;0.252;2024-01-30T10:13:55;1.15;;;0.32;;
14369;SDS011;7268;50.792;0.252;2024-01-30T10:16:22;1.55;;;0.43;;
14369;SDS011;7268;50.792;0.252;2024-01-30T10:18:50;1.17;;;0.82;;
14369;SDS011;7268;50.792;0.252;2024-01-30T10:21:17;0.95;;;0.55;;
14369;SDS011;7268;50.792;0.252;2024-01-30T10:23:44;1.45;;;0.82;;
14369;SDS011;7268;50.792;0.252;2024-01-30T10:26:12;0.47;;;0.17;;
14369;SDS011;7268;50.792;0.252;2024-01-30T10:28:39;4.90;;;0.43;;
14369;SDS011;7268;50.792;0.252;2024-01-30T10:31:06;4.13;;;0.20;;
14369;SDS011;7268;50.792;0.252;2024-01-30T10:33:33;1.33;;;0.70;;
14369;SDS011;7268;50.792;0.252;2024-01-30T10:36:02;0.63;;;0.20;;
14369;SDS011;7268;50.792;0.252;2024-01-30T10:38:32;0.77;;;0.63;;
14369;SDS011;7268;50.792;0.252;2024-01-30T10:41:00;2.03;;;1.20;;
14369;SDS011;7268;50.792;0.252;2024-01-30T10:43:32;5.32;;;0.30;;
14369;SDS011;7268;50.792;0.252;2024-01-30T10:46:20;0.68;;;0.35;;
14369;SDS011;7268;50.792;0.252;2024-01-30T10:48:53;2.25;;;1.17;;
14369;SDS011;7268;50.792;0.252;2024-01-30T10:51:27;3.65;;;0.10;;
14369;SDS011;7268;50.792;0.252;2024-01-30T10:53:55;0.68;;;0.30;;
14369;SDS011;7268;50.792;0.252;2024-01-30T10:56:24;3.42;;;0.47;;
14369;SDS011;7268;50.792;0.252;2024-01-30T10:58:52;0.88;;;0.13;;
14369;SDS011;7268;50.792;0.252;2024-01-30T11:01:19;0.85;;;0.55;;
14369;SDS011;7268;50.792;0.252;2024-01-30T11:03:50;1.30;;;0.43;;
14369;SDS011;7268;50.792;0.252;2024-01-30T11:09:10;1.00;;;0.43;;
14369;SDS011;7268;50.792;0.252;2024-01-30T11:11:52;3.60;;;1.08;;
14369;SDS011;7268;50.792;0.252;2024-01-30T11:14:28;2.35;;;0.50;;
14369;SDS011;7268;50.792;0.252;2024-01-30T11:16:59;1.35;;;1.25;;
14369;SDS011;7268;50.792;0.252;2024-01-30T11:19:30;3.35;;;0.95;;
14369;SDS011;7268;50.792;0.252;2024-01-30T11:21:59;6.15;;;0.75;;
14369;SDS011;7268;50.792;0.252;2024-01-30T11:24:27;1.25;;;0.30;;
14369;SDS011;7268;50.792;0.252;2024-01-30T11:26:57;5.07;;;0.95;;
14369;SDS011;7268;50.792;0.252;2024-01-30T11:29:29;1.50;;;0.57;;
14369;SDS011;7268;50.792;0.252;2024-01-30T11:31:56;1.73;;;0.60;;
14369;SDS011;7268;50.792;0.252;2024-01-30T11:34:25;7.00;;;0.73;;
14369;SDS011;7268;50.792;0.252;2024-01-30T11:36:59;0.88;;;0.73;;
14369;SDS011;7268;50.792;0.252;2024-01-30T11:39:29;3.70;;;0.75;;
14369;SDS011;7268;50.792;0.252;2024-01-30T11:41:56;1.63;;;0.47;;
14369;SDS011;7268;50.792;0.252;2024-01-30T11:44:24;1.30;;;0.30;;
14369;SDS011;7268;50.792;0.252;2024-01-30T11:46:52;2.08;;;0.47;;
14369;SDS011;7268;50.792;0.252;2024-01-30T11:49:19;0.98;;;0.20;;
14369;SDS011;7268;50.792;0.252;2024-01-30T11:51:46;0.50;;;0.08;;
14369;SDS011;7268;50.792;0.252;2024-01-30T11:54:16;1.67;;;0.17;;
14369;SDS011;7268;50.792;0.252;2024-01-30T11:56:44;2.95;;;0.38;;
14369;SDS011;7268;50.792;0.252;2024-01-30T11:59:11;2.80;;;0.75;;
14369;SDS011;7268;50.792;0.252;2024-01-30T12:01:39;2.42;;;0.55;;
14369;SDS011;7268;50.792;0.252;2024-01-30T12:04:06;3.95;;;1.00;;
14369;SDS011;7268;50.792;0.252;2024-01-30T12:06:36;2.25;;;0.95;;
14369;SDS011;7268;50.792;0.252;2024-01-30T12:09:08;2.10;;;0.68;;
14369;SDS011;7268;50.792;0.252;2024-01-30T12:11:46;0.73;;;0.45;;
14369;SDS011;7268;50.792;0.252;2024-01-30T12:14:14;3.97;;;0.32;;
14369;SDS011;7268;50.792;0.252;2024-01-30T12:16:42;1.63;;;0.75;;
14369;SDS011;7268;50.792;0.252;2024-01-30T12:19:09;4.80;;;0.65;;
14369;SDS011;7268;50.792;0.252;2024-01-30T12:21:38;1.10;;;0.10;;
14369;SDS011;7268;50.792;0.252;2024-01-30T12:24:05;0.80;;;0.73;;
14369;SDS011;7268;50.792;0.252;2024-01-30T12:26:33;1.80;;;0.85;;
14369;SDS011;7268;50.792;0.252;2024-01-30T12:29:03;3.53;;;0.85;;
14369;SDS011;7268;50.792;0.252;2024-01-30T12:31:31;2.72;;;0.25;;
14369;SDS011;7268;50.792;0.252;2024-01-30T12:34:00;0.80;;;0.17;;
14369;SDS011;7268;50.792;0.252;2024-01-30T12:36:28;4.07;;;0.85;;
14369;SDS011;7268;50.792;0.252;2024-01-30T12:38:57;3.35;;;0.45;;
14369;SDS011;7268;50.792;0.252;2024-01-30T12:41:25;1.75;;;0.85;;
14369;SDS011;7268;50.792;0.252;2024-01-30T12:43:56;4.32;;;0.75;;
14369;SDS011;7268;50.792;0.252;2024-01-30T12:46:30;1.83;;;1.73;;
14369;SDS011;7268;50.792;0.252;2024-01-30T12:48:57;3.78;;;0.70;;
14369;SDS011;7268;50.792;0.252;2024-01-30T12:51:24;0.90;;;0.50;;
14369;SDS011;7268;50.792;0.252;2024-01-30T12:53:51;1.67;;;0.20;;
14369;SDS011;7268;50.792;0.252;2024-01-30T12:56:18;3.13;;;1.08;;
14369;SDS011;7268;50.792;0.252;2024-01-30T12:58:45;3.05;;;0.55;;
14369;SDS011;7268;50.792;0.252;2024-01-30T13:01:17;1.52;;;0.98;;
14369;SDS011;7268;50.792;0.252;2024-01-30T13:03:44;1.67;;;0.20;;
14369;SDS011;7268;50.792;0.252;2024-01-30T13:06:11;0.73;;;0.70;;
14369;SDS011;7268;50.792;0.252;2024-01-30T13:08:38;0.95;;;0.35;;
14369;SDS011;7268;50.792;0.252;2024-01-30T13:11:06;1.00;;;0.88;;
14369;SDS011;7268;50.792;0.252;2024-01-30T13:13:45;3.15;;;0.22;;
14369;SDS011;7268;50.792;0.252;2024-01-30T13:16:12;0.47;;;0.35;;
14369;SDS011;7268;50.792;0.252;2024-01-30T13:18:39;9.88;;;0.52;;
14369;SDS011;7268;50.792;0.252;2024-01-30T13:21:06;2.08;;;1.98;;
14369;SDS011;7268;50.792;0.252;2024-01-30T13:23:33;0.60;;;0.30;;
14369;SDS011;7268;50.792;0.252;2024-01-30T13:26:04;0.85;;;0.60;;
14369;SDS011;7268;50.792;0.252;2024-01-30T13:28:32;3.78;;;0.55;;
14369;SDS011;7268;50.792;0.252;2024-01-30T13:31:00;1.67;;;0.25;;
14369;SDS011;7268;50.792;0.252;2024-01-30T13:33:27;4.65;;;0.20;;
14369;SDS011;7268;50.792;0.252;2024-01-30T13:35:54;0.47;;;0.10;;
14369;SDS011;7268;50.792;0.252;2024-01-30T13:38:21;1.35;;;0.65;;
14369;SDS011;7268;50.792;0.252;2024-01-30T13:40:48;0.52;;;0.45;;
14369;SDS011;7268;50.792;0.252;2024-01-30T13:43:16;2.20;;;0.95;;
14369;SDS011;7268;50.792;0.252;2024-01-30T13:45:44;1.80;;;0.73;;
14369;SDS011;7268;50.792;0.252;2024-01-30T13:48:12;2.75;;;0.90;;
14369;SDS011;7268;50.792;0.252;2024-01-30T13:50:39;0.82;;;0.55;;
14369;SDS011;7268;50.792;0.252;2024-01-30T13:53:06;3.72;;;0.93;;
14369;SDS011;7268;50.792;0.252;2024-01-30T13:55:33;3.30;;;0.22;;
14369;SDS011;7268;50.792;0.252;2024-01-30T13:58:01;2.45;;;1.30;;
14369;SDS011;7268;50.792;0.252;2024-01-30T14:00:28;1.00;;;0.38;;
14369;SDS011;7268;50.792;0.252;2024-01-30T14:02:55;2.38;;;0.25;;
14369;SDS011;7268;50.792;0.252;2024-01-30T14:05:24;1.20;;;0.68;;
14369;SDS011;7268;50.792;0.252;2024-01-30T14:07:54;6.28;;;1.17;;
14369;SDS011;7268;50.792;0.252;2024-01-30T14:10:21;0.98;;;0.77;;
14369;SDS011;7268;50.792;0.252;2024-01-30T14:12:48;4.57;;;0.52;;
14369;SDS011;7268;50.792;0.252;2024-01-30T14:15:15;1.48;;;0.55;;
14369;SDS011;7268;50.792;0.252;2024-01-30T14:17:54;4.78;;;0.55;;
14369;SDS011;7268;50.792;0.252;2024-01-30T14:20:21;1.23;;;0.43;;
14369;SDS011;7268;50.792;0.252;2024-01-30T14:22:49;1.00;;;0.28;;
14369;SDS011;7268;50.792;0.252;2024-01-30T14:25:15;0.82;;;0.35;;
14369;SDS011;7268;50.792;0.252;2024-01-30T14:27:43;1.00;;;0.05;;
14369;SDS011;7268;50.792;0.252;2024-01-30T14:30:10;5.22;;;0.43;;
14369;SDS011;7268;50.792;0.252;2024-01-30T14:32:38;4.35;;;0.43;;
14369;SDS011;7268;50.792;0.252;2024-01-30T14:35:07;2.33;;;0.28;;
14369;SDS011;7268;50.792;0.252;2024-01-30T14:37:35;3.83;;;0.35;;
14369;SDS011;7268;50.792;0.252;2024-01-30T14:42:33;1.23;;;0.38;;
14369;SDS011;7268;50.792;0.252;2024-01-30T14:45:01;1.98;;;0.60;;
14369;SDS011;7268;50.792;0.252;2024-01-30T14:47:29;1.60;;;0.35;;
14369;SDS011;7268;50.792;0.252;2024-01-30T14:49:57;2.95;;;0.40;;
14369;SDS011;7268;50.792;0.252;2024-01-30T14:52:24;1.10;;;0.35;;
14369;SDS011;7268;50.792;0.252;2024-01-30T14:54:51;1.85;;;0.43;;
14369;SDS011;7268;50.792;0.252;2024-01-30T14:57:18;6.43;;;0.73;;
14369;SDS011;7268;50.792;0.252;2024-01-30T14:59:46;2.90;;;0.90;;
14369;SDS011;7268;50.792;0.252;2024-01-30T15:02:14;1.50;;;0.95;;
14369;SDS011;7268;50.792;0.252;2024-01-30T15:04:41;10.25;;;0.52;;
14369;SDS011;7268;50.792;0.252;2024-01-30T15:07:08;1.17;;;0.10;;
14369;SDS011;7268;50.792;0.252;2024-01-30T15:09:37;3.78;;;0.70;;
14369;SDS011;7268;50.792;0.252;2024-01-30T15:12:07;1.85;;;0.22;;
14369;SDS011;7268;50.792;0.252;2024-01-30T15:14:34;4.32;;;0.43;;
14369;SDS011;7268;50.792;0.252;2024-01-30T15:17:01;1.20;;;0.15;;